createdAt,value
2018-10-21T00:02:15.873Z,13.83
2018-10-21T00:04:44.188Z,15.07
2018-10-21T00:07:12.464Z,14.50
2018-10-21T00:09:40.764Z,13.37
2018-10-21T00:12:09.006Z,13.53
2018-10-21T00:14:37.237Z,12.83
2018-10-21T00:17:05.480Z,13.97
2018-10-21T00:19:33.741Z,14.03
2018-10-21T00:22:02.029Z,13.87
2018-10-21T00:24:30.284Z,12.97
2018-10-21T00:26:58.594Z,14.37
2018-10-21T00:29:26.796Z,13.43
2018-10-21T00:31:55.065Z,13.87
2018-10-21T00:34:23.312Z,14.13
2018-10-21T00:36:51.516Z,14.13
2018-10-21T00:39:19.769Z,13.37
2018-10-21T00:41:47.986Z,14.73
2018-10-21T00:44:16.234Z,13.33
2018-10-21T00:46:44.477Z,14.03
2018-10-21T00:49:12.736Z,12.83
2018-10-21T00:51:41.051Z,14.97
2018-10-21T00:54:15.343Z,11.77
2018-10-21T00:56:45.022Z,13.57
2018-10-21T00:59:13.325Z,13.10
2018-10-21T01:01:42.748Z,13.73
2018-10-21T01:04:11.031Z,14.73
2018-10-21T01:06:39.388Z,13.63
2018-10-21T01:09:11.448Z,12.73
2018-10-21T01:11:40.495Z,15.07
2018-10-21T01:14:08.754Z,14.97
2018-10-21T01:16:37.039Z,16.60
2018-10-21T01:19:05.983Z,12.97
2018-10-21T01:21:34.340Z,15.67
2018-10-21T01:24:02.660Z,14.17
2018-10-21T01:26:30.902Z,12.23
2018-10-21T01:28:59.139Z,13.17
2018-10-21T01:31:27.371Z,13.27
2018-10-21T01:33:55.616Z,14.67
2018-10-21T01:36:24.191Z,13.73
2018-10-21T01:38:52.336Z,14.27
2018-10-21T01:41:20.538Z,14.63
2018-10-21T01:43:48.795Z,15.37
2018-10-21T01:46:17.094Z,16.20
2018-10-21T01:48:45.345Z,16.27
2018-10-21T01:51:13.645Z,16.30
2018-10-21T01:53:41.902Z,16.00
2018-10-21T01:56:10.107Z,18.80
2018-10-21T01:58:38.353Z,17.50
2018-10-21T02:01:06.568Z,17.93
2018-10-21T02:03:34.808Z,18.73
2018-10-21T02:06:03.156Z,16.12
2018-10-21T02:08:31.404Z,19.10
2018-10-21T02:10:59.657Z,19.73
2018-10-21T02:13:28.296Z,20.83
2018-10-21T02:15:56.549Z,19.17
2018-10-21T02:18:24.792Z,18.33
2018-10-21T02:20:53.019Z,18.50
2018-10-21T02:23:21.275Z,21.45
2018-10-21T02:25:49.527Z,21.42
2018-10-21T02:28:17.748Z,19.97
2018-10-21T02:30:46.027Z,20.67
2018-10-21T02:33:14.350Z,20.73
2018-10-21T02:35:42.524Z,20.07
2018-10-21T02:38:10.874Z,20.90
2018-10-21T02:41:47.884Z,22.82
2018-10-21T02:44:17.393Z,20.57
2018-10-21T02:46:46.199Z,22.32
2018-10-21T02:49:15.133Z,19.37
2018-10-21T02:51:43.340Z,23.40
2018-10-21T02:54:11.925Z,23.80
2018-10-21T02:56:40.175Z,21.70
2018-10-21T02:59:08.426Z,20.23
2018-10-21T03:01:36.699Z,24.43
2018-10-21T03:04:04.964Z,25.20
2018-10-21T03:06:33.172Z,24.73
2018-10-21T03:09:01.548Z,24.57
2018-10-21T03:11:29.732Z,26.27
2018-10-21T03:13:58.004Z,28.77
2018-10-21T03:16:26.278Z,26.80
2018-10-21T03:18:54.504Z,28.00
2018-10-21T03:21:22.824Z,26.53
2018-10-21T03:23:51.039Z,26.93
2018-10-21T03:26:19.282Z,26.43
2018-10-21T03:28:47.558Z,26.80
2018-10-21T03:31:15.816Z,25.57
2018-10-21T03:33:44.152Z,28.43
2018-10-21T03:36:12.381Z,26.10
2018-10-21T03:38:40.636Z,27.83
2018-10-21T03:41:08.912Z,25.33
2018-10-21T03:43:37.117Z,26.07
2018-10-21T03:46:05.494Z,28.67
2018-10-21T03:48:33.656Z,26.63
2018-10-21T03:51:02.531Z,27.37
2018-10-21T03:53:30.848Z,28.80
2018-10-21T03:55:59.093Z,28.40
2018-10-21T03:58:27.351Z,27.03
2018-10-21T04:00:55.612Z,27.03
2018-10-21T04:03:23.882Z,28.40
2018-10-21T04:05:52.116Z,28.13
2018-10-21T04:08:20.378Z,27.27
2018-10-21T04:10:48.616Z,26.50
2018-10-21T04:13:16.867Z,25.43
2018-10-21T04:15:45.123Z,26.87
2018-10-21T04:18:13.393Z,29.73
2018-10-21T04:20:41.665Z,28.47
2018-10-21T04:23:09.913Z,26.60
2018-10-21T04:25:39.003Z,29.33
2018-10-21T04:28:07.921Z,28.50
2018-10-21T04:30:37.544Z,26.80
2018-10-21T04:34:10.180Z,25.30
2018-10-21T04:36:38.357Z,26.67
2018-10-21T04:39:18.008Z,26.37
2018-10-21T04:41:46.246Z,28.80
2018-10-21T04:44:14.596Z,27.60
2018-10-21T04:46:42.940Z,26.97
2018-10-21T04:49:11.151Z,25.35
2018-10-21T04:51:39.367Z,26.00
2018-10-21T04:54:07.615Z,26.45
2018-10-21T04:56:35.862Z,26.50
2018-10-21T04:59:04.120Z,26.37
2018-10-21T05:01:32.347Z,26.97
2018-10-21T05:04:00.638Z,27.53
2018-10-21T05:06:28.871Z,28.53
2018-10-21T05:08:57.127Z,27.70
2018-10-21T05:11:25.384Z,28.13
2018-10-21T05:13:53.612Z,29.80
2018-10-21T05:16:21.851Z,29.72
2018-10-21T05:18:50.052Z,27.63
2018-10-21T05:21:18.316Z,27.43
2018-10-21T05:23:46.608Z,26.90
2018-10-21T05:26:14.848Z,30.27
2018-10-21T05:28:43.105Z,29.13
2018-10-21T05:31:11.321Z,28.97
2018-10-21T05:33:39.539Z,27.37
2018-10-21T05:36:07.800Z,27.73
2018-10-21T05:38:36.044Z,27.63
2018-10-21T05:41:04.293Z,28.83
2018-10-21T05:43:32.514Z,30.20
2018-10-21T05:46:00.800Z,29.77
2018-10-21T05:48:29.078Z,29.40
2018-10-21T05:50:57.336Z,30.43
2018-10-21T05:53:25.587Z,28.30
2018-10-21T05:55:53.807Z,29.20
2018-10-21T05:58:22.132Z,32.37
2018-10-21T06:00:50.304Z,31.00
2018-10-21T06:03:19.163Z,29.90
2018-10-21T06:05:48.716Z,32.03
2018-10-21T06:08:16.976Z,30.53
2018-10-21T06:10:45.594Z,31.20
2018-10-21T06:13:14.110Z,32.35
2018-10-21T06:15:42.408Z,31.47
2018-10-21T06:18:14.670Z,33.15
2018-10-21T06:20:45.484Z,33.27
2018-10-21T06:23:13.732Z,31.37
2018-10-21T06:25:41.969Z,33.63
2018-10-21T06:28:10.300Z,33.20
2018-10-21T06:30:38.564Z,34.10
2018-10-21T06:33:07.922Z,32.43
2018-10-21T06:35:36.142Z,33.73
2018-10-21T06:38:04.704Z,32.63
2018-10-21T06:40:32.995Z,34.57
2018-10-21T06:43:01.244Z,35.90
2018-10-21T06:45:29.557Z,36.65
2018-10-21T06:47:57.779Z,34.30
2018-10-21T06:50:25.996Z,36.47
2018-10-21T06:52:55.104Z,33.20
2018-10-21T06:55:23.376Z,38.30
2018-10-21T06:57:51.724Z,34.33
2018-10-21T07:00:19.925Z,34.47
2018-10-21T07:02:48.189Z,33.55
2018-10-21T07:05:27.830Z,35.23
2018-10-21T07:07:56.072Z,34.90
2018-10-21T07:10:24.329Z,33.35
2018-10-21T07:12:52.580Z,34.58
2018-10-21T07:15:21.092Z,34.80
2018-10-21T07:17:49.317Z,33.20
2018-10-21T07:20:17.551Z,32.90
2018-10-21T07:22:46.060Z,34.37
2018-10-21T07:25:14.327Z,36.63
2018-10-21T07:27:42.790Z,35.27
2018-10-21T07:30:12.371Z,38.47
2018-10-21T07:32:41.431Z,37.47
2018-10-21T07:35:11.711Z,38.28
2018-10-21T07:37:40.383Z,38.87
2018-10-21T07:40:09.215Z,39.80
2018-10-21T07:42:37.404Z,37.77
2018-10-21T07:45:05.980Z,37.98
2018-10-21T07:47:34.816Z,40.20
2018-10-21T07:50:03.232Z,38.97
2018-10-21T07:52:31.451Z,37.27
2018-10-21T07:54:59.729Z,39.17
2018-10-21T07:57:27.972Z,39.60
2018-10-21T07:59:56.240Z,39.67
2018-10-21T08:02:24.497Z,41.60
2018-10-21T08:04:52.821Z,42.97
2018-10-21T08:07:32.521Z,39.83
2018-10-21T08:10:00.816Z,40.87
2018-10-21T08:12:28.996Z,40.33
2018-10-21T08:14:57.280Z,40.23
2018-10-21T08:17:25.520Z,40.55
2018-10-21T08:19:53.751Z,42.23
2018-10-21T08:22:21.992Z,45.33
2018-10-21T08:24:50.745Z,45.80
2018-10-21T08:27:19.093Z,45.88
2018-10-21T08:29:47.331Z,43.33
2018-10-21T08:32:15.579Z,42.55
2018-10-21T08:34:43.832Z,43.60
2018-10-21T08:37:12.056Z,42.50
2018-10-21T08:39:40.326Z,43.73
2018-10-21T08:42:08.588Z,43.80
2018-10-21T08:44:37.445Z,42.67
2018-10-21T08:47:05.980Z,43.02
2018-10-21T08:49:34.213Z,43.40
2018-10-21T08:52:02.517Z,42.23
2018-10-21T08:54:30.758Z,43.75
2018-10-21T08:56:59.052Z,43.52
2018-10-21T08:59:27.360Z,41.77
2018-10-21T09:01:55.664Z,43.13
2018-10-21T09:04:24.020Z,43.50
2018-10-21T09:06:53.080Z,43.30
2018-10-21T09:09:21.413Z,43.23
2018-10-21T09:11:49.752Z,42.98
2018-10-21T09:14:18.060Z,42.35
2018-10-21T09:16:46.404Z,44.83
2018-10-21T09:19:14.696Z,44.20
2018-10-21T09:21:43.057Z,42.00
2018-10-21T09:24:11.373Z,43.23
2018-10-21T09:26:39.778Z,44.85
2018-10-21T09:29:08.825Z,42.73
2018-10-21T09:31:37.101Z,43.83
2018-10-21T09:34:05.748Z,43.28
2018-10-21T09:36:33.997Z,40.92
2018-10-21T09:39:02.335Z,43.55
2018-10-21T09:41:30.607Z,41.88
2018-10-21T09:43:58.893Z,42.55
2018-10-21T09:46:27.219Z,43.33
2018-10-21T09:48:55.576Z,44.55
2018-10-21T09:51:23.887Z,42.70
2018-10-21T09:53:52.192Z,43.08
2018-10-21T09:56:20.862Z,43.33
2018-10-21T09:58:49.202Z,42.53
2018-10-21T10:01:22.816Z,41.48
2018-10-21T10:03:52.022Z,42.33
2018-10-21T10:06:20.738Z,44.80
2018-10-21T10:08:49.073Z,43.38
2018-10-21T10:11:17.807Z,42.35
2018-10-21T10:13:46.073Z,43.20
2018-10-21T10:16:14.437Z,42.95
2018-10-21T10:18:42.701Z,42.10
2018-10-21T10:21:11.044Z,41.20
2018-10-21T10:23:39.353Z,44.08
2018-10-21T10:26:07.673Z,41.70
2018-10-21T10:28:35.940Z,43.10
2018-10-21T10:31:04.277Z,42.73
2018-10-21T10:33:32.561Z,41.30
2018-10-21T10:36:00.922Z,43.60
2018-10-21T10:38:29.310Z,42.20
2018-10-21T10:40:57.613Z,43.15
2018-10-21T10:43:26.103Z,43.78
2018-10-21T10:45:54.481Z,41.58
2018-10-21T10:48:22.744Z,42.75
2018-10-21T10:50:51.069Z,45.30
2018-10-21T10:53:19.359Z,42.98
2018-10-21T10:55:51.679Z,41.50
2018-10-21T10:58:20.105Z,44.42
2018-10-21T11:00:48.495Z,42.15
2018-10-21T11:03:16.778Z,41.53
2018-10-21T11:05:45.705Z,42.70
2018-10-21T11:08:14.109Z,42.05
2018-10-21T11:10:42.395Z,40.92
2018-10-21T11:13:10.768Z,42.50
2018-10-21T11:15:38.976Z,43.25
2018-10-21T11:18:07.360Z,42.85
2018-10-21T11:20:36.306Z,43.13
2018-10-21T11:23:05.192Z,39.67
2018-10-21T11:25:34.608Z,41.33
2018-10-21T11:28:03.210Z,41.05
2018-10-21T11:30:31.658Z,41.85
2018-10-21T11:32:59.950Z,43.48
2018-10-21T11:35:28.299Z,42.58
2018-10-21T11:37:56.883Z,42.43
2018-10-21T11:40:25.272Z,40.30
2018-10-21T11:42:53.588Z,40.73
2018-10-21T11:45:21.871Z,40.60
2018-10-21T11:47:50.167Z,41.10
2018-10-21T11:50:18.477Z,40.70
2018-10-21T11:52:47.036Z,38.48
2018-10-21T11:55:15.209Z,40.88
2018-10-21T11:57:43.443Z,39.15
2018-10-21T12:00:12.824Z,37.98
2018-10-21T12:02:41.156Z,39.33
2018-10-21T12:05:09.470Z,39.55
2018-10-21T12:07:37.777Z,37.93
2018-10-21T12:10:06.642Z,36.42
2018-10-21T12:12:34.930Z,38.00
2018-10-21T12:15:04.164Z,37.05
2018-10-21T12:17:32.481Z,37.75
2018-10-21T12:20:01.467Z,36.50
2018-10-21T12:22:29.797Z,36.30
2018-10-21T12:24:58.157Z,37.10
2018-10-21T12:27:26.484Z,35.30
2018-10-21T12:29:54.795Z,32.33
2018-10-21T12:32:23.393Z,33.88
2018-10-21T12:34:51.711Z,32.50
2018-10-21T12:37:20.030Z,32.42
2018-10-21T12:39:48.534Z,29.45
2018-10-21T12:42:17.228Z,27.45
2018-10-21T12:44:45.554Z,26.75
2018-10-21T12:47:13.918Z,26.85
2018-10-21T12:49:42.200Z,25.10
2018-10-21T12:52:10.593Z,24.98
2018-10-21T12:54:39.201Z,24.65
2018-10-21T12:57:07.998Z,25.90
2018-10-21T12:59:36.287Z,24.20
2018-10-21T13:02:05.596Z,23.15
2018-10-21T13:04:33.873Z,26.30
2018-10-21T13:07:02.573Z,22.87
2018-10-21T13:09:30.885Z,23.22
2018-10-21T13:11:59.193Z,22.45
2018-10-21T13:14:27.490Z,23.35
2018-10-21T13:16:55.807Z,22.85
2018-10-21T13:19:24.133Z,22.85
2018-10-21T13:21:52.438Z,23.42
2018-10-21T13:24:20.768Z,24.52
2018-10-21T13:26:49.933Z,22.60
2018-10-21T13:29:18.220Z,22.57
2018-10-21T13:31:46.503Z,22.27
2018-10-21T13:34:14.864Z,23.65
2018-10-21T13:36:43.113Z,23.80
2018-10-21T13:39:13.913Z,24.57
2018-10-21T13:41:43.129Z,23.02
2018-10-21T13:44:11.811Z,23.40
2018-10-21T13:46:40.969Z,24.32
2018-10-21T13:49:09.296Z,23.52
2018-10-21T13:51:37.833Z,27.67
2018-10-21T13:54:06.959Z,24.05
2018-10-21T13:56:35.317Z,23.60
2018-10-21T13:59:03.686Z,24.45
2018-10-21T14:01:32.399Z,23.35
2018-10-21T14:04:00.641Z,24.43
2018-10-21T14:06:30.411Z,22.98
2018-10-21T14:08:58.707Z,23.60
2018-10-21T14:11:26.996Z,21.23
2018-10-21T14:13:56.033Z,21.40
2018-10-21T14:16:24.447Z,20.85
2018-10-21T14:18:52.727Z,19.17
2018-10-21T14:21:21.008Z,18.85
2018-10-21T14:23:49.302Z,18.17
2018-10-21T14:26:18.817Z,18.15
2018-10-21T14:28:47.208Z,17.80
2018-10-21T14:31:15.645Z,16.67
2018-10-21T14:33:43.989Z,16.70
2018-10-21T14:36:12.433Z,15.43
2018-10-21T14:38:40.862Z,14.58
2018-10-21T14:41:09.559Z,15.43
2018-10-21T14:43:37.948Z,12.93
2018-10-21T14:46:06.612Z,11.03
2018-10-21T14:48:34.775Z,10.88
2018-10-21T14:51:03.261Z,9.35
2018-10-21T14:53:31.581Z,9.38
2018-10-21T14:55:59.960Z,8.85
2018-10-21T14:58:29.000Z,10.15
2018-10-21T15:00:57.314Z,9.40
2018-10-21T15:03:25.709Z,9.93
2018-10-21T15:05:54.221Z,11.07
2018-10-21T15:08:22.594Z,10.68
2018-10-21T15:10:50.916Z,11.48
2018-10-21T15:13:19.236Z,10.98
2018-10-21T15:15:47.685Z,11.30
2018-10-21T15:18:16.083Z,11.35
2018-10-21T15:20:44.810Z,11.83
2018-10-21T15:23:13.152Z,12.75
2018-10-21T15:25:41.807Z,12.85
2018-10-21T15:28:10.338Z,12.03
2018-10-21T15:30:38.625Z,12.23
2018-10-21T15:33:07.052Z,12.95
2018-10-21T15:35:35.413Z,13.10
2018-10-21T15:38:03.861Z,13.38
2018-10-21T15:40:32.339Z,12.60
2018-10-21T15:43:02.895Z,12.73
2018-10-21T15:45:31.205Z,12.50
2018-10-21T15:48:00.303Z,12.45
2018-10-21T15:50:28.627Z,12.47
2018-10-21T15:52:57.194Z,11.65
2018-10-21T15:55:25.926Z,11.80
2018-10-21T15:57:54.437Z,12.13
2018-10-21T16:00:23.481Z,13.55
2018-10-21T16:02:52.520Z,13.62
2018-10-21T16:05:20.968Z,14.33
2018-10-21T16:07:49.304Z,14.28
2018-10-21T16:10:18.690Z,15.38
2018-10-21T16:12:48.337Z,16.10
2018-10-21T16:15:16.999Z,15.63
2018-10-21T16:17:46.945Z,15.40
2018-10-21T16:20:15.395Z,15.25
2018-10-21T16:22:44.436Z,15.98
2018-10-21T16:25:14.992Z,17.32
2018-10-21T16:27:43.331Z,16.17
2018-10-21T16:30:14.103Z,16.52
2018-10-21T16:32:43.191Z,15.58
2018-10-21T16:35:12.000Z,16.10
2018-10-21T16:37:41.032Z,16.15
2018-10-21T16:40:15.376Z,15.98
2018-10-21T16:42:43.760Z,15.60
2018-10-21T16:45:13.050Z,15.50
2018-10-21T16:47:41.627Z,16.00
2018-10-21T16:50:12.097Z,15.98
2018-10-21T16:52:40.753Z,15.68
2018-10-21T16:55:10.093Z,15.88
2018-10-21T16:57:38.822Z,15.80
2018-10-21T17:00:10.075Z,16.50
2018-10-21T17:02:38.423Z,15.53
2018-10-21T17:05:07.108Z,16.27
2018-10-21T17:07:35.608Z,15.15
2018-10-21T17:10:04.247Z,17.25
2018-10-21T17:12:32.412Z,15.90
2018-10-21T17:15:01.213Z,16.80
2018-10-21T17:17:29.642Z,16.17
2018-10-21T17:19:59.002Z,17.17
2018-10-21T17:22:27.613Z,15.70
2018-10-21T17:24:56.006Z,16.62
2018-10-21T17:27:27.768Z,15.72
2018-10-21T17:29:58.143Z,15.38
2018-10-21T17:32:27.353Z,15.37
2018-10-21T17:34:55.724Z,15.08
2018-10-21T17:37:24.388Z,14.95
2018-10-21T17:39:52.757Z,16.67
2018-10-21T17:42:21.274Z,17.70
2018-10-21T17:44:50.663Z,16.05
2018-10-21T17:47:20.716Z,16.32
2018-10-21T17:49:49.278Z,14.20
2018-10-21T17:52:18.311Z,12.55
2018-10-21T17:54:46.639Z,13.28
2018-10-21T17:57:14.999Z,12.73
2018-10-21T17:59:43.770Z,12.25
2018-10-21T18:02:13.515Z,13.33
2018-10-21T18:04:43.473Z,13.18
2018-10-21T18:07:11.826Z,12.47
2018-10-21T18:09:45.925Z,12.63
2018-10-21T18:12:14.893Z,12.73
2018-10-21T18:14:43.314Z,12.23
2018-10-21T18:17:11.739Z,12.90
2018-10-21T18:19:41.122Z,13.13
2018-10-21T18:22:10.074Z,13.80
2018-10-21T18:24:39.813Z,14.30
2018-10-21T18:27:10.860Z,15.15
2018-10-21T18:29:40.012Z,15.83
2018-10-21T18:32:08.720Z,16.10
2018-10-21T18:39:31.620Z,16.37
2018-10-21T18:42:00.553Z,16.07
2018-10-21T18:44:28.857Z,17.37
2018-10-21T18:46:57.491Z,17.95
2018-10-21T18:49:25.896Z,17.77
2018-10-21T18:51:54.394Z,19.27
2018-10-21T18:54:24.096Z,18.75
2018-10-21T18:56:53.869Z,19.23
2018-10-21T18:59:22.219Z,19.35
2018-10-21T19:01:50.710Z,19.60
2018-10-21T19:04:19.109Z,21.35
2018-10-21T19:06:47.413Z,21.00
2018-10-21T19:09:22.155Z,23.38
2018-10-21T19:11:51.620Z,21.30
2018-10-21T19:14:22.072Z,21.42
2018-10-21T19:16:51.158Z,20.40
2018-10-21T19:19:19.508Z,22.45
2018-10-21T19:21:48.170Z,22.70
2018-10-21T19:24:17.888Z,23.57
2018-10-21T19:26:46.201Z,24.02
2018-10-21T19:29:15.089Z,21.52
2018-10-21T19:31:43.431Z,23.50
2018-10-21T19:34:12.325Z,23.25
2018-10-21T19:36:40.680Z,23.97
2018-10-21T19:39:10.947Z,25.03
2018-10-21T19:41:39.976Z,23.83
2018-10-21T19:44:10.387Z,25.77
2018-10-21T19:46:38.848Z,23.53
2018-10-21T19:49:08.868Z,23.77
2018-10-21T19:51:37.693Z,36.43
2018-10-21T19:54:06.291Z,24.80
2018-10-21T19:56:34.683Z,24.43
2018-10-21T19:59:05.242Z,22.83
2018-10-21T20:01:33.852Z,23.83
2018-10-21T20:04:02.208Z,22.75
2018-10-21T20:06:31.094Z,24.27
2018-10-21T20:08:59.441Z,23.57
2018-10-21T20:11:27.776Z,23.03
2018-10-21T20:13:56.313Z,24.13
2018-10-21T20:16:24.881Z,22.60
2018-10-21T20:18:54.161Z,23.25
2018-10-21T20:21:22.897Z,22.87
2018-10-21T20:23:51.230Z,23.80
2018-10-21T20:26:19.671Z,23.13
2018-10-21T20:28:48.243Z,22.40
2018-10-21T20:31:16.586Z,24.00
2018-10-21T20:33:44.945Z,22.17
2018-10-21T20:36:14.037Z,22.93
2018-10-21T20:38:42.348Z,20.92
2018-10-21T20:41:10.798Z,21.87
2018-10-21T20:43:39.135Z,21.65
2018-10-21T20:46:07.534Z,20.72
2018-10-21T20:48:36.210Z,21.17
2018-10-21T20:51:04.811Z,22.07
2018-10-21T20:53:33.083Z,23.57
2018-10-21T20:56:02.769Z,23.77
2018-10-21T20:58:31.381Z,21.97
2018-10-21T21:00:59.759Z,22.63
2018-10-21T21:03:28.052Z,23.10
2018-10-21T21:05:56.459Z,22.65
2018-10-21T21:08:24.819Z,22.00
2018-10-21T21:10:53.243Z,24.37
2018-10-21T21:13:21.543Z,23.60
2018-10-21T21:15:49.867Z,24.87
2018-10-21T21:18:18.183Z,22.27
2018-10-21T21:20:46.701Z,24.33
2018-10-21T21:23:14.926Z,25.23
2018-10-21T21:25:43.273Z,23.75
2018-10-21T21:28:11.610Z,23.60
2018-10-21T21:30:40.024Z,26.10
2018-10-21T21:33:08.598Z,24.72
2018-10-21T21:35:36.883Z,26.23
2018-10-21T21:38:05.462Z,25.12
2018-10-21T21:40:33.744Z,25.35
2018-10-21T21:43:02.025Z,25.32
2018-10-21T21:45:30.308Z,24.50
2018-10-21T21:47:58.568Z,25.23
2018-10-21T21:50:26.921Z,25.17
2018-10-21T21:52:55.165Z,24.70
2018-10-21T21:55:23.432Z,25.50
2018-10-21T21:57:51.702Z,25.75
2018-10-21T22:00:19.951Z,24.87
2018-10-21T22:02:48.255Z,26.42
2018-10-21T22:05:16.511Z,26.13
2018-10-21T22:07:44.813Z,27.73
2018-10-21T22:10:13.846Z,28.92
2018-10-21T22:12:42.780Z,27.90
2018-10-21T22:15:11.009Z,27.10
2018-10-21T22:17:39.893Z,28.17
2018-10-21T22:20:08.148Z,27.90
2018-10-21T22:22:36.400Z,28.17
2018-10-21T22:25:05.027Z,27.93
2018-10-21T22:27:33.315Z,29.07
2018-10-21T22:30:01.632Z,28.45
2018-10-21T22:32:29.854Z,27.87
2018-10-21T22:34:58.101Z,28.53
2018-10-21T22:37:26.348Z,28.67
2018-10-21T22:39:55.084Z,28.40
2018-10-21T22:42:23.319Z,28.50
2018-10-21T22:44:51.703Z,28.60
2018-10-21T22:47:19.979Z,28.75
2018-10-21T22:49:48.195Z,27.97
2018-10-21T22:52:16.587Z,28.70
2018-10-21T22:54:44.704Z,27.77
2018-10-21T22:57:17.684Z,28.35
2018-10-21T22:59:47.092Z,28.00
2018-10-21T23:02:15.636Z,29.70
2018-10-21T23:04:44.200Z,28.77
2018-10-21T23:07:12.451Z,28.45
2018-10-21T23:09:40.707Z,27.98
2018-10-21T23:12:09.220Z,29.05
2018-10-21T23:14:37.744Z,30.02
2018-10-21T23:17:05.981Z,28.83
2018-10-21T23:19:40.543Z,29.92
2018-10-21T23:22:08.844Z,30.35
2018-10-21T23:24:37.739Z,30.67
2018-10-21T23:27:06.150Z,29.95
2018-10-21T23:29:34.396Z,30.97
2018-10-21T23:32:02.616Z,29.75
2018-10-21T23:34:30.838Z,30.10
2018-10-21T23:36:59.087Z,32.03
2018-10-21T23:39:28.056Z,30.25
2018-10-21T23:41:56.459Z,30.30
2018-10-21T23:44:24.707Z,30.88
2018-10-21T23:46:53.088Z,30.85
2018-10-21T23:49:21.339Z,31.45
2018-10-21T23:51:49.617Z,31.68
2018-10-21T23:54:17.972Z,33.30
2018-10-21T23:56:46.153Z,32.67
2018-10-21T23:59:14.376Z,31.45
